FW4251 Weather Reports


Display with metric or nautical units.
time (UTC)temp
F
wind
direction
speed
MPH
gust
MPH
rain 1hr
in
rain 24hr
in
rain mn
in
humidity
%
barometer
mb
20210622173006 64 91 2.0 4.0 0.01 0.74 0.28 95 1007.5
20210622172509 64 71 0.0 4.0 0.01 0.74 0.28 95 1007.7
20210622172014 63 65 0.0 2.0 0.01 0.74 0.28 95 1008.1
20210622171511 63 65 0.0 2.0 0.01 0.74 0.28 96 1008.0
20210622171007 63 65 0.0 2.0 0.01 0.73 0.27 95 1008.1
20210622170514 63 65 0.0 2.0 0.02 0.73 0.27 95 1008.1
20210622170031 63 65 0.0 2.0 0.02 0.73 0.27 95 1008.3
20210622165505 63 65 0.0 2.0 0.03 0.73 0.27 96 1008.3
20210622165012 62 65 0.0 2.0 0.04 0.73 0.27 96 1008.3
20210622164518 62 65 1.0 2.0 0.05 0.73 0.27 96 1008.5
20210622164003 62 65 0.0 3.0 0.06 0.73 0.27 96 1008.4
20210622163503 62 65 1.0 3.0 0.08 0.73 0.27 96 1008.1
20210622163010 62 79 0.0 2.0 0.09 0.73 0.27 96 1008.2
20210622162503 62 79 0.0 3.0 0.10 0.73 0.27 96 1008.3
20210622162002 62 79 1.0 3.0 0.12 0.73 0.27 96 1008.2
20210622161502 62 67 0.0 2.0 0.13 0.73 0.27 96 1008.1
20210622161001 61 319 0.0 2.0 0.13 0.72 0.26 96 1008.1
20210622160506 61 319 0.0 3.0 0.13 0.71 0.25 96 1008.1
20210622160001 61 319 1.0 3.0 0.13 0.71 0.25 95 1008.2
20210622155603 61 314 1.0 3.0 0.13 0.70 0.24 95 1008.3
20210622155141 61 313 1.0 4.0 0.12 0.69 0.23 96 1008.1
20210622154909 61 309 1.0 4.0 0.13 0.68 0.22 95 1008.2
20210622154102 61 305 1.0 4.0 0.12 0.67 0.21 95 1008.3
20210622153558 61 305 1.0 3.0 0.10 0.65 0.19 95 1008.2
20210622153220 61 305 1.0 3.0 0.10 0.64 0.18 95 1008.1
20210622152559 61 305 0.0 3.0 0.10 0.63 0.17 95 1008.1
20210622152123 61 305 1.0 3.0 0.08 0.61 0.15 95 1008.1
20210622151616 61 335 1.0 3.0 0.07 0.60 0.14 95 1008.0
20210622151053 61 341 1.0 4.0 0.07 0.59 0.13 95 1008.0
20210622150553 62 346 3.0 4.0 0.07 0.57 0.12 95 1008.0
20210622150203 62 318 1.0 4.0 0.07 0.57 0.12 96 1007.8
20210622145551 63 317 2.0 4.0 0.06 0.56 0.11 96 1007.8
20210622145054 63 88 0.0 1.0 0.05 0.56 0.10 96 1007.8
20210622144743 63 88 0.0 2.0 0.04 0.55 0.09 96 1007.8
20210622144050 62 88 0.0 2.0 0.04 0.55 0.09 96 1007.8
20210622143604 62 90 0.0 3.0 0.03 0.54 0.08 96 1007.9
20210622143149 63 117 0.0 3.0 0.03 0.54 0.08 96 1007.8
20210622142555 63 117 0.0 4.0 0.02 0.53 0.07 96 1007.6
20210622142057 63 117 0.0 4.0 0.02 0.53 0.07 96 1007.6
20210622141702 63 59 0.0 3.0 0.02 0.53 0.07 96 1007.6
20210622141047 63 57 0.0 8.0 0.01 0.52 0.06 96 1007.6
20210622140614 63 299 0.0 3.0 0.00 0.51 0.05 96 1007.7
20210622140201 63 296 0.0 2.0 0.00 0.51 0.05 96 1007.6
20210622135602 63 296 0.0 2.0 0.00 0.51 0.05 96 1007.6
20210622135045 63 296 0.0 2.0 0.00 0.51 0.05 95 1007.6
20210622134550 63 289 0.0 3.0 0.00 0.51 0.05 95 1007.5
20210622134108 63 84 0.0 2.0 0.00 0.51 0.05 96 1007.3
20210622133553 63 87 0.0 4.0 0.00 0.51 0.05 95 1007.4
20210622133052 63 87 1.0 4.0 0.00 0.51 0.05 95 1007.4
20210622132607 63 38 1.0 3.0 0.00 0.51 0.05 95 1007.4
20210622132048 63 38 0.0 4.0 0.00 0.51 0.05 95 1007.4
20210622131616 62 38 1.0 4.0 0.00 0.51 0.05 95 1007.3
20210622131138 63 61 0.0 4.0 0.00 0.51 0.05 95 1007.2
20210622130539 63 78 0.0 5.0 0.00 0.51 0.05 95 1007.2
20210622130112 63 29 1.0 9.0 0.00 0.51 0.05 95 1007.0
20210622125542 63 51 1.0 6.0 0.00 0.51 0.05 95 1006.9
20210622125106 63 92 1.0 8.0 0.00 0.51 0.05 95 1006.8
20210622124605 63 85 1.0 8.0 0.01 0.51 0.05 95 1006.7
20210622124040 63 123 2.0 5.0 0.01 0.51 0.05 95 1006.8
20210622123541 63 49 1.0 3.0 0.02 0.51 0.05 95 1006.8
20210622123042 63 47 1.0 4.0 0.02 0.51 0.05 95 1006.7
20210622122607 63 94 2.0 8.0 0.02 0.51 0.05 95 1006.6
20210622122033 63 103 2.0 8.0 0.02 0.51 0.05 95 1006.6
20210622121621 63 116 2.0 7.0 0.02 0.51 0.05 95 1006.5
20210622121029 64 74 3.0 7.0 0.02 0.51 0.05 95 1006.4
20210622120555 64 69 1.0 4.0 0.02 0.51 0.05 95 1006.4
20210622120109 64 98 1.0 8.0 0.03 0.51 0.05 95 1006.3
20210622115527 64 97 2.0 6.0 0.03 0.51 0.05 96 1006.2
20210622115033 65 88 2.0 4.0 0.03 0.51 0.05 96 1006.1
20210622114555 65 94 1.0 4.0 0.03 0.50 0.04 95 1006.0
20210622114031 65 90 2.0 4.0 0.03 0.50 0.04 95 1006.0
20210622113521 65 114 1.0 4.0 0.02 0.49 0.03 96 1006.2
20210622113048 66 101 2.0 4.0 0.02 0.49 0.03 96 1005.9
20210622112526 66 102 0.0 4.0 0.02 0.49 0.03 96 1005.9
20210622112018 66 100 1.0 4.0 0.02 0.49 0.03 96 1005.7
20210622111540 66 338 0.0 2.0 0.02 0.49 0.03 96 1005.6
20210622111040 66 338 0.0 1.0 0.02 0.49 0.03 96 1005.7
20210622110517 66 338 0.0 1.0 0.02 0.49 0.03 96 1005.5
20210622110052 66 338 0.0 1.0 0.01 0.48 0.02 96 1005.3
20210622105525 66 338 0.0 2.0 0.01 0.48 0.02 96 1005.1
20210622105021 66 338 0.0 6.0 0.00 0.47 0.01 96 1005.0
20210622104531 66 333 2.0 6.0 0.00 0.47 0.01 96 1005.1
20210622104013 66 327 2.0 8.0 0.00 0.47 0.01 96 1005.2
20210622103513 66 22 2.0 9.0 0.00 0.47 0.01 96 1004.9
20210622103024 66 5 3.0 9.0 0.00 0.47 0.01 96 1005.0
20210622102516 67 333 2.0 9.0 0.00 0.47 0.01 96 1005.0
20210622102008 67 320 1.0 9.0 0.00 0.47 0.01 96 1004.8
20210622101526 68 294 3.0 8.0 0.00 0.47 0.01 96 1004.7
20210622101007 68 28 1.0 8.0 0.00 0.47 0.01 96 1004.4
20210622100509 69 55 2.0 8.0 0.00 0.47 0.01 97 1004.2
20210622100005 70 32 1.0 6.0 0.00 0.47 0.01 97 1004.1
20210622095510 70 309 1.0 3.0 0.00 0.47 0.01 97 1003.9
20210622095003 70 309 0.0 3.0 0.00 0.47 0.01 97 1003.8
20210622094505 70 301 0.0 4.0 0.00 0.47 0.01 97 1003.9
20210622094005 70 210 0.0 2.0 0.01 0.47 0.01 97 1003.9
20210622093503 70 207 0.0 2.0 0.01 0.47 0.01 97 1003.8
20210622093003 70 207 0.0 2.0 0.01 0.47 0.01 97 1003.6
20210622092503 70 207 0.0 2.0 0.01 0.47 0.01 97 1003.7
20210622092002 70 207 0.0 2.0 0.01 0.47 0.01 97 1003.7
20210622091742 69 207 0.0 1.0 0.01 0.47 0.01 97 1003.6
20210622091106 69 207 0.0 1.0 0.01 0.47 0.01 97 1003.4
20210622090558 69 207 0.0 1.0 0.01 0.47 0.01 97 1003.0
20210622090151 69 207 0.0 2.0 0.01 0.47 0.01 97 1002.7
20210622085606 69 207 0.0 2.0 0.01 0.47 0.01 97 1002.7
20210622085107 69 207 0.0 2.0 0.01 0.47 0.01 97 1002.8
20210622084620 69 207 0.0 2.0 0.01 0.47 0.01 97 1002.9
20210622084056 69 207 0.0 2.0 0.00 0.46 0.00 97 1002.8
20210622083556 69 207 1.0 4.0 0.00 0.46 0.00 97 1002.8
20210622083304 69 207 0.0 3.0 0.00 0.46 0.00 97 1002.8
20210622082607 69 207 2.0 4.0 0.00 0.46 0.00 97 1002.8
20210622082106 69 207 1.0 4.0 0.00 0.46 0.00 97 1002.8
20210622081734 69 200 1.0 4.0 0.00 0.46 0.00 97 1002.8
20210622081108 69 205 1.0 4.0 0.00 0.46 0.00 97 1002.7
20210622080602 69 196 2.0 4.0 0.00 0.46 0.00 97 1002.8
20210622080118 69 196 1.0 5.0 0.00 0.46 0.00 97 1002.7
20210622075559 70 194 2.0 5.0 0.00 0.46 0.00 97 1002.7
20210622075058 70 201 1.0 4.0 0.00 0.46 0.00 97 1002.7
20210622074630 70 192 1.0 4.0 0.00 0.46 0.00 97 1002.7
20210622074104 70 218 1.0 4.0 0.00 0.46 0.00 97 1002.9
20210622073600 70 227 2.0 4.0 0.00 0.46 0.00 97 1002.9
20210622073137 70 232 1.0 5.0 0.00 0.46 0.00 97 1002.8
20210622072618 70 199 2.0 4.0 0.00 0.46 0.00 97 1002.7
20210622072049 70 221 2.0 4.0 0.00 0.46 0.00 97 1002.7
20210622071603 70 221 0.0 2.0 0.00 0.46 0.00 96 1002.4
20210622071049 70 221 0.0 2.0 0.00 0.46 0.00 96 1002.6
20210622070549 70 221 0.0 2.0 0.00 0.46 0.00 97 1002.4
20210622070106 70 221 0.0 3.0 0.00 0.46 0.00 96 1002.3
20210622065629 70 221 0.0 5.0 0.00 0.46 0.00 96 1002.4
20210622065049 70 234 2.0 6.0 0.00 0.46 0.00 96 1002.4
20210622064627 70 181 2.0 6.0 0.00 0.46 0.00 96 1002.5
20210622064102 70 178 2.0 6.0 0.00 0.46 0.00 97 1002.6
20210622063547 70 207 2.0 8.0 0.00 0.46 0.00 97 1002.6
20210622063204 70 207 2.0 8.0 0.00 0.46 0.00 96 1002.5
20210622062547 70 180 4.0 8.0 0.00 0.46 0.00 96 1002.7
20210622062047 70 188 4.0 7.0 0.00 0.46 0.00 96 1002.7
20210622061651 70 193 3.0 6.0 0.00 0.46 0.00 96 1002.6
20210622061051 70 191 2.0 5.0 0.00 0.46 0.00 96 1002.6
20210622060545 70 196 1.0 4.0 0.00 0.46 0.00 96 1002.6
20210622060148 70 198 2.0 4.0 0.00 0.46 0.00 96 1002.6
20210622055549 70 228 1.0 3.0 0.00 0.46 0.00 96 1002.7
20210622055052 70 233 1.0 3.0 0.00 0.46 0.00 96 1002.6
20210622054709 70 233 1.0 3.0 0.00 0.46 0.00 96 1002.6
20210622054052 70 233 1.0 3.0 0.00 0.46 0.00 96 1002.6
20210622053603 70 233 0.0 3.0 0.00 0.46 0.00 96 1002.6
20210622053233 70 233 1.0 3.0 0.00 0.46 0.00 96 1002.5
20210622052558 70 234 1.0 3.0 0.00 0.46 0.00 96 1002.7
20210622052043 70 234 0.0 2.0 0.00 0.46 0.00 96 1002.7
20210622051557 70 234 0.0 2.0 0.00 0.46 0.00 96 1002.8
20210622051059 70 234 0.0 2.0 0.00 0.46 0.00 96 1002.6
20210622050541 70 234 0.0 3.0 0.00 0.46 0.00 96 1002.5
20210622050113 70 234 1.0 3.0 0.00 0.46 0.00 96 1002.5
20210622045555 70 234 1.0 3.0 0.00 0.46 0.00 96 1002.5
20210622045045 70 234 2.0 3.0 0.00 0.46 0.00 96 1002.5
20210622044553 70 298 2.0 3.0 0.00 0.46 0.00 96 1002.6
20210622044038 70 304 0.0 2.0 0.00 0.46 0.00 96 1002.6
20210622043539 70 304 0.0 2.0 0.00 0.46 0.00 96 1002.5
20210622043123 70 304 0.0 2.0 0.00 0.46 0.00 95 1002.5
20210622042536 70 304 0.0 2.0 0.00 0.46 0.00 96 1002.5
20210622042036 70 304 0.0 4.0 0.00 0.46 0.00 96 1002.5
20210622041554 70 304 2.0 4.0 0.00 0.46 0.00 95 1002.6
20210622041032 70 194 0.0 2.0 0.00 0.46 0.00 95 1002.3
20210622040608 70 194 1.0 2.0 0.01 0.46 0.00 95 1002.4
20210622040127 70 194 0.0 0.0 0.01 0.46 0.00 95 1002.3
20210622035530 70 194 0.0 1.0 0.01 0.46 0.46 95 1002.4
20210622035048 70 194 0.0 1.0 0.02 0.46 0.46 95 1002.5
20210622034657 70 194 0.0 2.0 0.03 0.46 0.46 95 1002.6
20210622034029 70 194 0.0 2.0 0.05 0.46 0.46 95 1002.6
20210622033531 70 194 0.0 4.0 0.06 0.46 0.46 95 1002.5
20210622033111 70 194 1.0 5.0 0.07 0.46 0.46 95 1002.8
20210622032544 70 196 2.0 5.0 0.07 0.46 0.46 94 1002.8
20210622032032 71 165 1.0 3.0 0.07 0.46 0.46 94 1002.9
20210622031610 71 167 2.0 7.0 0.08 0.46 0.46 94 1002.8
20210622031028 71 183 1.0 8.0 0.10 0.46 0.46 94 1002.8
20210622030528 71 194 4.0 9.0 0.12 0.45 0.45 94 1002.8
20210622030112 71 173 3.0 6.0 0.13 0.45 0.45 94 1002.9
20210622025529 71 185 2.0 7.0 0.15 0.45 0.45 93 1003.0
20210622025034 71 169 4.0 7.0 0.19 0.44 0.44 94 1003.0
20210622024615 71 153 2.0 7.0 0.26 0.43 0.43 93 1003.0
20210622024032 71 175 4.0 7.0 0.38 0.41 0.41 93 1003.2
20210622023527 71 185 2.0 4.0 0.40 0.40 0.40 93 1003.4
20210622023111 71 206 2.0 4.0 0.39 0.39 0.39 92 1003.4
20210622022548 72 205 1.0 4.0 0.39 0.39 0.39 92 1003.2
20210622022041 72 205 1.0 4.0 0.39 0.39 0.39 92 1003.3
20210622021543 72 209 1.0 8.0 0.37 0.37 0.37 91 1003.3
20210622021033 72 213 2.0 9.0 0.36 0.36 0.36 90 1003.4
20210622020526 72 230 4.0 9.0 0.33 0.33 0.33 89 1004.0
20210622020054 73 224 3.0 10.0 0.32 0.32 0.32 88 1004.3
20210622015525 74 159 5.0 14.0 0.28 0.28 0.28 86 1004.3
20210622015028 75 236 4.0 15.0 0.23 0.23 0.23 83 1004.0
20210622014557 78 302 5.0 19.0 0.14 0.14 0.14 79 1003.9
20210622014024 80 221 4.0 11.0 0.01 0.01 0.01 80 1003.7
20210622013524 80 187 3.0 9.0 0.00 0.00 0.00 80 1001.5
20210622013048 80 195 4.0 9.0 0.00 0.00 0.00 79 1001.2
20210622012534 80 173 2.0 9.0 0.00 0.00 0.00 79 1001.1
20210622012024 80 165 2.0 6.0 0.00 0.00 0.00 79 1001.2
20210622011531 80 165 3.0 7.0 0.00 0.00 0.00 79 1001.2
20210622011041 80 160 2.0 5.0 0.00 0.00 0.00 79 1001.2
20210622010523 80 160 1.0 3.0 0.00 0.00 0.00 79 1001.2
20210622010103 80 161 1.0 3.0 0.00 0.00 0.00 78 1001.0
20210622005528 80 157 1.0 3.0 0.00 0.00 0.00 78 1001.0
20210622005038 81 156 1.0 7.0 0.00 0.00 0.00 77 1001.1
20210622004549 81 182 2.0 5.0 0.00 0.00 0.00 77 1001.0
20210622004022 81 192 1.0 5.0 0.00 0.00 0.00 76 1000.7
20210622003521 81 153 1.0 7.0 0.00 0.00 0.00 76 1000.6
20210622003030 81 162 3.0 7.0 0.00 0.00 0.00 75 1000.5
20210622002523 82 187 1.0 6.0 0.00 0.00 0.00 74 1000.7
20210622002021 82 167 2.0 6.0 0.00 0.00 0.00 74 1000.9
20210622001527 82 215 2.0 7.0 0.00 0.00 0.00 74 1000.9
20210622001021 82 201 1.0 8.0 0.00 0.00 0.00 73 1000.9
20210622000030 83 204 3.0 11.0 0.00 0.00 0.00 72 1000.7
20210621235521 83 163 5.0 11.0 0.00 0.00 0.00 71 1000.7
20210621235021 83 198 4.0 10.0 0.00 0.00 0.00 71 1000.8
20210621234528 83 161 6.0 10.0 0.00 0.00 0.00 71 1000.7
20210621234023 83 207 2.0 7.0 0.00 0.00 0.00 71 1000.8
20210621233539 83 184 4.0 7.0 0.00 0.00 0.00 71 1000.8
20210621233109 83 225 4.0 7.0 0.00 0.00 0.00 70 1000.8
20210621232519 83 187 3.0 7.0 0.00 0.00 0.00 70 1000.7
20210621232019 83 191 3.0 7.0 0.00 0.00 0.00 70 1000.6
20210621231522 84 196 3.0 7.0 0.00 0.00 0.00 70 1000.6
20210621231019 84 227 3.0 12.0 0.00 0.00 0.00 69 1000.5
20210621230539 84 207 3.0 12.0 0.00 0.00 0.00 68 1000.6
20210621230050 84 197 4.0 9.0 0.00 0.00 0.00 68 1000.7
20210621225527 85 257 4.0 13.0 0.00 0.00 0.00 66 1000.6
20210621225017 85 196 6.0 14.0 0.00 0.00 0.00 66 1000.5
20210621224521 86 175 6.0 14.0 0.00 0.00 0.00 65 1000.2
20210621224021 86 188 7.0 14.0 0.00 0.00 0.00 65 999.9
20210621223517 86 207 6.0 17.0 0.00 0.00 0.00 66 1000.0
20210621223147 86 218 7.0 17.0 0.00 0.00 0.00 66 1000.0
20210621222518 86 196 4.0 13.0 0.00 0.00 0.00 66 1000.0
20210621222036 86 246 6.0 13.0 0.00 0.00 0.00 66 1000.1
20210621221514 86 202 5.0 14.0 0.00 0.00 0.00 66 1000.5
20210621221014 87 165 4.0 15.0 0.00 0.00 0.00 66 1000.4
20210621220514 86 157 6.0 15.0 0.00 0.00 0.00 65 1000.4
20210621220053 87 198 6.0 15.0 0.00 0.00 0.00 65 1000.3
20210621215513 87 225 6.0 15.0 0.00 0.00 0.00 65 1000.5
20210621215014 87 223 5.0 14.0 0.00 0.00 0.00 65 1000.6
20210621214515 88 214 6.0 16.0 0.00 0.00 0.00 64 1000.7
20210621214023 87 169 6.0 15.0 0.00 0.00 0.00 64 1000.7
20210621213515 87 221 5.0 16.0 0.00 0.00 0.00 64 1000.9
20210621213034 87 200 8.0 16.0 0.00 0.00 0.00 64 1000.9
20210621212509 87 192 6.0 17.0 0.00 0.00 0.00 65 1001.1
20210621212007 87 198 7.0 17.0 0.00 0.00 0.00 64 1001.2
20210621211512 87 179 6.0 14.0 0.00 0.00 0.00 64 1001.4
20210621211010 88 224 8.0 17.0 0.00 0.00 0.00 62 1001.5
20210621210508 89 150 8.0 17.0 0.00 0.00 0.00 61 1001.7
20210621210033 88 221 7.0 17.0 0.00 0.00 0.00 62 1001.5
20210621205505 89 195 8.0 15.0 0.00 0.00 0.00 61 1001.7
20210621205004 89 167 6.0 16.0 0.00 0.00 0.00 62 1001.7
20210621204504 89 162 7.0 16.0 0.00 0.00 0.00 61 1001.7
20210621204008 88 180 5.0 16.0 0.00 0.00 0.00 63 1001.7
20210621203503 88 216 7.0 13.0 0.00 0.00 0.00 64 1001.6
20210621203005 89 176 5.0 19.0 0.00 0.00 0.00 64 1001.5
20210621202601 88 185 6.0 19.0 0.00 0.00 0.00 63 1001.5
20210621202501 89 177 5.0 19.0 0.00 0.00 0.00 64 1001.5
20210621202102 89 196 5.0 15.0 0.00 0.00 0.00 65 1001.5
20210621201712 88 148 7.0 17.0 0.00 0.00 0.00 63 1001.6
20210621201101 88 148 10.0 16.0 0.00 0.00 0.00 62 1001.7
20210621200558 88 157 6.0 16.0 0.00 0.00 0.00 64 1001.7
20210621200237 88 219 8.0 16.0 0.00 0.00 0.00 63 1001.7
20210621195558 88 231 4.0 12.0 0.00 0.00 0.00 64 1001.7
20210621195135 89 178 4.0 16.0 0.00 0.00 0.00 63 1001.7
20210621194629 89 229 6.0 16.0 0.00 0.00 0.00 64 1001.7
20210621194055 88 206 6.0 13.0 0.00 0.00 0.00 64 1001.9
20210621193554 88 180 5.0 13.0 0.00 0.00 0.00 65 1001.8
20210621193119 88 188 5.0 15.0 0.00 0.00 0.00 63 1002.0
20210621192553 88 229 7.0 14.0 0.00 0.00 0.00 64 1001.8
20210621192052 88 203 6.0 14.0 0.00 0.00 0.00 65 1001.8
20210621191620 88 167 7.0 16.0 0.00 0.00 0.00 63 1001.9
20210621191108 87 166 4.0 16.0 0.00 0.00 0.00 65 1002.1
20210621190551 87 217 7.0 17.0 0.00 0.00 0.00 65 1002.2
20210621190125 88 189 7.0 18.0 0.00 0.00 0.00 65 1002.3
20210621185553 88 221 6.0 16.0 0.00 0.00 0.00 66 1002.5
20210621185046 88 161 7.0 16.0 0.00 0.00 0.00 65 1002.7
20210621184617 87 154 5.0 15.0 0.00 0.00 0.00 66 1002.9
20210621184044 86 178 7.0 18.0 0.00 0.00 0.00 69 1003.2
20210621183544 88 182 8.0 17.0 0.00 0.00 0.00 65 1003.2
20210621183255 88 121 5.0 14.0 0.00 0.00 0.00 66 1003.3
20210621182547 88 193 5.0 14.0 0.00 0.00 0.00 67 1003.3
20210621182056 88 178 7.0 15.0 0.00 0.00 0.00 66 1003.3
20210621181637 87 171 7.0 14.0 0.00 0.00 0.00 66 1003.4
20210621181040 86 199 6.0 12.0 0.00 0.00 0.00 69 1003.4
20210621180545 85 217 6.0 16.0 0.00 0.00 0.00 68 1003.3
20210621180139 85 158 7.0 16.0 0.00 0.00 0.00 69 1003.4
20210621175547 85 217 7.0 15.0 0.00 0.00 0.00 69 1003.4
20210621175042 85 186 6.0 13.0 0.00 0.00 0.00 69 1003.5
20210621174700 85 211 5.0 14.0 0.00 0.00 0.00 68 1003.5
20210621174039 86 169 7.0 20.0 0.00 0.00 0.00 69 1003.6
20210621173535 86 180 7.0 20.0 0.00 0.00 0.00 70 1003.4
20210621173058 87 153 10.0 17.0 0.00 0.00 0.00 66 1003.5